Time;durP1;ratioP1;P1;durP2;ratioP2;P2;SDS_P1;SDS_P2;PMS_P1;PMS_P2;Temp;Humidity;BMP_temperature;BMP_pressure;BME280_temperature;BME280_humidity;BME280_pressure;Samples;Min_cycle;Max_cycle;Signal;HPM_P1;HPM_P2
2021/08/04 00:02:03;;;;;;;6.82;3.60;;;;;;;18.12;61.98;100237.19;4937544;29;20067;-86
2021/08/04 00:04:29;;;;;;;6.30;3.78;;;;;;;17.88;62.15;100237.03;4937404;29;20031;-86
2021/08/04 00:06:54;;;;;;;5.18;3.63;;;;;;;17.84;62.03;100233.84;4936988;29;20375;-86
2021/08/04 00:09:19;;;;;;;5.38;3.80;;;;;;;17.82;62.10;100231.31;4937392;29;20537;-86
2021/08/04 00:11:45;;;;;;;6.45;3.97;;;;;;;17.86;62.01;100223.91;4951999;29;20446;-86
2021/08/04 00:14:10;;;;;;;7.50;4.45;;;;;;;17.83;62.17;100230.38;4937467;29;20023;-86
2021/08/04 00:16:36;;;;;;;8.45;4.45;;;;;;;17.75;62.59;100230.28;4937370;29;20059;-86
2021/08/04 00:19:02;;;;;;;6.32;3.80;;;;;;;17.90;62.67;100225.25;4937174;29;20032;-86
2021/08/04 00:21:27;;;;;;;4.65;3.40;;;;;;;17.95;62.77;100227.44;4936838;29;20394;-86
2021/08/04 00:23:53;;;;;;;6.18;3.33;;;;;;;18.00;62.36;100220.66;4936971;29;20035;-86
2021/08/04 00:26:18;;;;;;;5.32;3.40;;;;;;;18.00;62.08;100218.00;4937051;29;20028;-86
2021/08/04 00:28:44;;;;;;;4.65;3.40;;;;;;;18.04;61.88;100226.50;4937127;29;20059;-86
2021/08/04 00:31:09;;;;;;;6.85;3.92;;;;;;;18.03;62.26;100220.38;4936860;29;20033;-86
2021/08/04 00:33:34;;;;;;;6.40;3.67;;;;;;;18.07;62.18;100217.38;4936864;29;20474;-85
2021/08/04 00:36:00;;;;;;;5.53;3.63;;;;;;;18.01;62.34;100221.53;4936459;29;20111;-86
2021/08/04 00:38:25;;;;;;;4.72;3.70;;;;;;;18.10;62.31;100222.41;4936743;29;20075;-86
2021/08/04 00:40:51;;;;;;;6.35;3.45;;;;;;;18.12;62.45;100226.56;4936921;29;20110;-85
2021/08/04 00:43:16;;;;;;;6.70;4.55;;;;;;;18.03;62.50;100227.50;4951574;29;20020;-86
2021/08/04 00:45:42;;;;;;;6.88;4.00;;;;;;;18.13;62.52;100225.56;4936616;29;20035;-86
2021/08/04 00:48:07;;;;;;;8.57;4.20;;;;;;;18.16;62.41;100229.72;4951444;29;20036;-86
2021/08/04 00:50:34;;;;;;;10.05;4.78;;;;;;;18.15;62.44;100231.56;4936336;29;20042;-86
2021/08/04 00:52:59;;;;;;;11.57;5.22;;;;;;;18.08;62.31;100227.84;4936477;29;20035;-86
2021/08/04 00:55:25;;;;;;;8.05;4.65;;;;;;;18.07;62.72;100217.38;4936491;29;20433;-86
2021/08/04 00:57:51;;;;;;;8.65;4.43;;;;;;;18.10;62.86;100223.22;4936397;29;20043;-85
2021/08/04 01:00:16;;;;;;;8.02;4.72;;;;;;;18.06;62.79;100221.88;4936335;29;20031;-86
2021/08/04 01:02:57;;;;;;;10.10;4.85;;;;;;;18.26;62.45;100222.47;4936548;29;20052;-86
2021/08/04 01:05:26;;;;;;;7.05;4.13;;;;;;;18.21;62.81;100224.78;4936356;29;20036;-86
2021/08/04 01:08:08;;;;;;;10.15;4.60;;;;;;;18.18;62.71;100223.25;4935987;29;20059;-86
2021/08/04 01:10:48;;;;;;;6.50;4.30;;;;;;;18.20;62.80;100221.28;4935977;29;20027;-86
2021/08/04 01:13:24;;;;;;;7.10;4.35;;;;;;;18.15;62.88;100220.09;4936196;29;20454;-86
2021/08/04 01:16:04;;;;;;;9.00;3.90;;;;;;;18.16;62.54;100224.41;4936186;29;20066;-86
2021/08/04 01:18:38;;;;;;;8.63;4.43;;;;;;;17.93;62.85;100217.00;4936106;29;20031;-86
2021/08/04 01:21:06;;;;;;;9.45;5.05;;;;;;;17.61;63.54;100214.91;4935978;29;20126;-86
2021/08/04 01:23:42;;;;;;;7.85;4.60;;;;;;;17.80;63.41;100220.03;4935669;29;20037;-86
2021/08/04 01:26:17;;;;;;;7.50;5.05;;;;;;;17.75;63.57;100216.16;4935915;29;20470;-85
2021/08/04 01:28:46;;;;;;;5.82;4.40;;;;;;;17.79;63.44;100218.38;4935856;29;20039;-86
2021/08/04 01:31:15;;;;;;;8.60;4.93;;;;;;;17.69;63.41;100220.25;4935769;29;20118;-86
2021/08/04 01:33:44;;;;;;;7.22;4.55;;;;;;;17.73;63.72;100223.44;4935213;29;20051;-86
2021/08/04 01:36:10;;;;;;;7.65;4.90;;;;;;;17.66;63.74;100215.28;4935732;29;20036;-86
2021/08/04 01:38:37;;;;;;;8.85;5.57;;;;;;;17.72;64.14;100213.84;4935503;28;20099;-86
2021/08/04 01:41:05;;;;;;;6.43;4.88;;;;;;;17.77;64.03;100215.03;4935669;29;20076;-86
2021/08/04 01:43:32;;;;;;;5.40;4.38;;;;;;;17.80;63.98;100224.50;4935564;29;20429;-85
2021/08/04 01:45:59;;;;;;;6.95;5.30;;;;;;;17.82;63.61;100226.00;4935507;29;20028;-86
2021/08/04 01:48:25;;;;;;;6.38;4.88;;;;;;;17.84;63.79;100220.56;4950251;29;20038;-86
2021/08/04 01:50:54;;;;;;;7.93;4.10;;;;;;;17.84;63.60;100218.75;4935439;29;20063;-86
2021/08/04 01:53:21;;;;;;;7.05;4.60;;;;;;;17.80;64.05;100220.03;4935129;29;20082;-86
2021/08/04 01:55:47;;;;;;;8.07;4.95;;;;;;;17.76;63.82;100217.84;4934154;29;20070;-86
2021/08/04 01:58:12;;;;;;;7.32;4.80;;;;;;;17.70;64.13;100224.59;4935296;29;20114;-86
2021/08/04 02:00:37;;;;;;;9.85;5.28;;;;;;;17.60;64.35;100219.38;4935278;29;20106;-86
2021/08/04 02:03:03;;;;;;;7.88;4.90;;;;;;;17.55;64.60;100220.81;4935342;29;20398;-86
2021/08/04 02:05:28;;;;;;;8.18;4.80;;;;;;;17.69;64.28;100217.59;4935113;29;20094;-86
2021/08/04 02:08:11;;;;;;;7.57;5.50;;;;;;;17.93;63.74;100216.13;4934857;29;20098;-86
2021/08/04 02:10:45;;;;;;;7.60;5.00;;;;;;;17.79;64.47;100210.41;4934804;29;20031;-86
2021/08/04 02:13:19;;;;;;;8.70;5.38;;;;;;;17.98;64.43;100216.50;4934715;29;20059;-86
2021/08/04 02:15:48;;;;;;;11.88;5.30;;;;;;;17.86;64.84;100213.28;4935064;29;20035;-86
2021/08/04 02:18:19;;;;;;;9.07;5.22;;;;;;;17.93;64.59;100218.78;4934943;29;20032;-85
2021/08/04 02:20:45;;;;;;;8.33;5.07;;;;;;;17.82;64.61;100218.03;4949610;29;20036;-86
2021/08/04 02:23:19;;;;;;;7.03;4.68;;;;;;;18.01;64.43;100216.22;4934463;29;20063;-85
2021/08/04 02:25:50;;;;;;;10.32;5.47;;;;;;;18.02;64.63;100223.19;4934682;29;20028;-86
2021/08/04 02:28:26;;;;;;;7.82;5.40;;;;;;;18.09;64.41;100213.59;4934654;29;20028;-86
2021/08/04 02:30:53;;;;;;;7.82;4.90;;;;;;;17.92;64.50;100212.66;4933671;29;20391;-85
2021/08/04 02:33:19;;;;;;;8.02;5.03;;;;;;;17.87;64.18;100203.50;4934858;29;20487;-86
2021/08/04 02:35:45;;;;;;;6.85;5.05;;;;;;;17.91;64.68;100207.50;4934784;29;20024;-86
2021/08/04 02:38:10;;;;;;;9.35;5.45;;;;;;;17.83;64.93;100217.09;4934185;29;20079;-85
2021/08/04 02:40:36;;;;;;;10.13;5.72;;;;;;;17.80;65.07;100201.44;4949486;29;20407;-85
2021/08/04 02:43:03;;;;;;;5.78;4.55;;;;;;;17.89;64.94;100212.13;4934669;29;20083;-86
2021/08/04 02:45:28;;;;;;;8.48;5.25;;;;;;;17.87;64.98;100193.72;4934434;29;20055;-86
2021/08/04 02:47:55;;;;;;;13.70;6.60;;;;;;;17.80;65.14;100198.78;4934639;29;20028;-86
2021/08/04 02:50:23;;;;;;;10.65;5.40;;;;;;;17.91;65.36;100197.72;4934738;29;20024;-86
2021/08/04 02:52:49;;;;;;;8.25;5.15;;;;;;;17.88;65.10;100202.50;4934313;29;20063;-86
2021/08/04 02:55:16;;;;;;;5.80;4.95;;;;;;;17.91;65.02;100200.38;4934696;29;20020;-86
2021/08/04 02:57:42;;;;;;;8.73;5.60;;;;;;;17.91;65.16;100196.88;4934418;29;20032;-86
2021/08/04 03:00:08;;;;;;;11.75;5.78;;;;;;;17.80;65.31;100208.56;4949135;29;20034;-86
2021/08/04 03:02:34;;;;;;;11.07;6.18;;;;;;;17.92;65.08;100203.88;4934372;29;20035;-86
2021/08/04 03:04:59;;;;;;;7.25;4.97;;;;;;;17.98;64.72;100206.72;4934420;29;20055;-85
2021/08/04 03:07:24;;;;;;;11.00;5.63;;;;;;;18.01;64.41;100200.28;4934130;29;20078;-86
2021/08/04 03:09:50;;;;;;;7.90;5.45;;;;;;;18.03;64.29;100208.91;4934476;29;20526;-86
2021/08/04 03:12:15;;;;;;;7.80;5.03;;;;;;;18.04;64.41;100207.91;4934358;29;20102;-86
2021/08/04 03:14:41;;;;;;;6.72;4.95;;;;;;;17.99;64.53;100196.91;4934337;29;20039;-86
2021/08/04 03:17:06;;;;;;;14.93;5.70;;;;;;;18.00;64.41;100203.91;4934459;29;20028;-86
2021/08/04 03:19:31;;;;;;;6.93;5.00;;;;;;;17.91;64.75;100192.41;4934358;29;20546;-85
2021/08/04 03:21:57;;;;;;;7.78;5.18;;;;;;;17.80;65.01;100196.13;4933929;29;20043;-86
2021/08/04 03:24:22;;;;;;;7.50;5.25;;;;;;;17.95;64.49;100198.22;4934230;29;20118;-86
2021/08/04 03:26:47;;;;;;;9.85;5.22;;;;;;;17.93;64.36;100195.75;4934128;29;20049;-85
2021/08/04 03:29:13;;;;;;;7.88;5.00;;;;;;;17.92;64.35;100201.22;4934277;29;20034;-85
2021/08/04 03:31:38;;;;;;;6.15;4.82;;;;;;;17.88;64.61;100202.50;4934179;29;20091;-86
2021/08/04 03:34:04;;;;;;;7.30;4.90;;;;;;;17.87;64.73;100204.34;4934161;29;20031;-86
2021/08/04 03:36:29;;;;;;;5.43;4.70;;;;;;;17.86;64.61;100199.19;4933753;29;20397;-86
2021/08/04 03:38:55;;;;;;;6.80;4.78;;;;;;;17.86;64.56;100193.88;4933766;29;20087;-86
2021/08/04 03:41:20;;;;;;;6.93;4.40;;;;;;;17.83;64.51;100202.94;4934414;29;20431;-86
2021/08/04 03:43:46;;;;;;;7.05;4.97;;;;;;;17.71;64.83;100205.00;4934065;29;20784;-86
2021/08/04 03:46:11;;;;;;;10.90;4.95;;;;;;;17.67;64.95;100202.84;4934144;29;20065;-86
2021/08/04 03:48:36;;;;;;;7.10;4.80;;;;;;;17.66;65.01;100209.97;4934078;29;20028;-86
2021/08/04 03:51:03;;;;;;;7.32;5.43;;;;;;;17.67;65.08;100202.84;4933843;29;20089;-86
2021/08/04 03:53:28;;;;;;;7.55;5.25;;;;;;;17.63;65.19;100207.63;4933887;29;20031;-86
2021/08/04 03:55:54;;;;;;;13.07;5.45;;;;;;;17.53;65.19;100202.41;4934132;29;20024;-86
2021/08/04 03:58:19;;;;;;;11.18;5.22;;;;;;;17.51;65.13;100214.16;4936066;29;20028;-86
2021/08/04 04:00:45;;;;;;;6.88;4.53;;;;;;;17.50;65.17;100215.16;4937442;29;20027;-86
2021/08/04 04:03:11;;;;;;;8.20;5.38;;;;;;;17.42;65.80;100215.94;4951971;29;20036;-85
2021/08/04 04:05:37;;;;;;;8.63;5.40;;;;;;;17.40;65.63;100218.72;4937081;29;20031;-86
2021/08/04 04:08:02;;;;;;;8.73;5.30;;;;;;;17.38;65.57;100215.41;4937232;29;20032;-85
2021/08/04 04:10:27;;;;;;;7.28;5.10;;;;;;;17.40;65.64;100224.03;4936085;29;20031;-85
2021/08/04 04:12:53;;;;;;;9.27;4.57;;;;;;;17.44;65.54;100225.41;4937359;29;20426;-86
2021/08/04 04:15:18;;;;;;;8.85;4.93;;;;;;;17.35;65.46;100223.66;4937073;29;20019;-86
2021/08/04 04:17:43;;;;;;;8.57;5.10;;;;;;;17.33;65.84;100228.28;4937010;29;20502;-85
2021/08/04 04:20:11;;;;;;;7.90;5.38;;;;;;;17.35;65.89;100230.78;4936753;29;20024;-85
2021/08/04 04:22:37;;;;;;;11.48;5.63;;;;;;;17.21;66.05;100229.50;4936588;29;20036;-86
2021/08/04 04:25:02;;;;;;;9.48;5.03;;;;;;;17.19;65.81;100226.16;4936917;29;20023;-86
2021/08/04 04:27:28;;;;;;;7.22;4.93;;;;;;;17.16;65.81;100221.16;4937162;29;20427;-86
2021/08/04 04:29:53;;;;;;;9.93;5.47;;;;;;;17.16;66.05;100219.34;4936925;29;20035;-86
2021/08/04 04:32:18;;;;;;;7.75;5.40;;;;;;;17.17;66.29;100225.47;4936846;29;20114;-86
2021/08/04 04:34:44;;;;;;;7.07;4.38;;;;;;;17.15;66.02;100224.81;4936764;29;20019;-85
2021/08/04 04:37:09;;;;;;;7.97;5.18;;;;;;;17.20;65.99;100227.81;4936407;29;20031;-86
2021/08/04 04:39:34;;;;;;;9.68;5.15;;;;;;;17.22;65.92;100232.00;4936858;29;20027;-85
2021/08/04 04:42:00;;;;;;;8.80;5.28;;;;;;;17.25;65.64;100228.22;4951412;29;20059;-86
2021/08/04 04:44:25;;;;;;;7.97;5.22;;;;;;;17.02;65.55;100231.31;4936692;29;20394;-85
2021/08/04 04:46:51;;;;;;;5.93;4.53;;;;;;;17.10;65.77;100225.25;4936558;29;20054;-86
2021/08/04 04:49:16;;;;;;;8.63;4.43;;;;;;;17.13;65.68;100224.94;4936515;29;20107;-85
2021/08/04 04:51:41;;;;;;;8.23;4.80;;;;;;;17.12;65.39;100222.44;4936261;29;20378;-85
2021/08/04 04:54:07;;;;;;;6.03;4.80;;;;;;;17.21;64.83;100229.50;4936427;29;20024;-85
2021/08/04 04:56:32;;;;;;;7.25;5.07;;;;;;;17.15;65.67;100230.09;4936639;29;20031;-86
2021/08/04 04:58:57;;;;;;;6.47;4.47;;;;;;;17.19;65.94;100236.78;4936440;29;20442;-85
2021/08/04 05:01:23;;;;;;;8.85;5.43;;;;;;;17.22;65.86;100242.63;4936288;29;20055;-86
2021/08/04 05:03:48;;;;;;;7.72;5.60;;;;;;;17.19;65.54;100244.75;4936148;29;20023;-86
2021/08/04 05:06:13;;;;;;;8.40;5.78;;;;;;;17.24;65.80;100234.53;4935901;29;20148;-85
2021/08/04 05:08:39;;;;;;;6.22;4.60;;;;;;;17.21;66.04;100240.13;4934648;29;20035;-85
2021/08/04 05:11:04;;;;;;;6.85;4.15;;;;;;;17.28;65.42;100233.22;4936040;29;20050;-85
2021/08/04 05:13:30;;;;;;;6.18;4.93;;;;;;;17.20;65.88;100246.38;4935442;29;20439;-85
2021/08/04 05:15:55;;;;;;;11.30;5.80;;;;;;;17.22;65.79;100244.44;4935260;29;20070;-85
2021/08/04 05:18:21;;;;;;;9.25;5.60;;;;;;;17.22;65.79;100241.78;4935436;29;20490;-85
2021/08/04 05:20:46;;;;;;;8.68;6.03;;;;;;;17.22;66.71;100250.59;4935010;29;20028;-85
2021/08/04 05:23:12;;;;;;;5.97;4.93;;;;;;;17.36;66.50;100243.09;4937995;29;20042;-85
2021/08/04 05:25:38;;;;;;;8.63;5.28;;;;;;;17.35;66.81;100252.84;4937057;29;20219;-85
2021/08/04 05:28:04;;;;;;;9.68;5.53;;;;;;;17.42;66.77;100253.09;4935733;29;20098;-84
2021/08/04 05:30:29;;;;;;;9.75;5.15;;;;;;;17.44;66.39;100251.13;4951485;29;20039;-85
2021/08/04 05:32:55;;;;;;;7.13;5.28;;;;;;;17.53;66.43;100259.97;4935353;29;20023;-85
2021/08/04 05:35:20;;;;;;;6.57;5.10;;;;;;;17.54;66.38;100251.03;4935037;29;20036;-85
2021/08/04 05:37:45;;;;;;;6.03;4.18;;;;;;;17.56;66.26;100251.72;4935585;29;20447;-84
2021/08/04 05:40:11;;;;;;;8.13;4.88;;;;;;;17.58;66.17;100241.78;4950149;29;20059;-83
2021/08/04 05:42:36;;;;;;;8.05;4.82;;;;;;;17.60;66.28;100247.75;4949371;28;20024;-85
2021/08/04 05:45:02;;;;;;;7.68;5.28;;;;;;;17.65;65.91;100250.78;4916585;29;20059;-85
2021/08/04 05:47:27;;;;;;;12.30;4.63;;;;;;;17.69;65.81;100246.81;4916614;29;20526;-85
2021/08/04 05:49:53;;;;;;;11.50;5.18;;;;;;;17.81;65.76;100245.59;4935021;29;20106;-86
2021/08/04 05:52:18;;;;;;;7.28;4.82;;;;;;;17.85;65.33;100248.78;4935284;29;20055;-87
2021/08/04 05:54:44;;;;;;;6.15;4.78;;;;;;;17.89;65.55;100250.16;4934909;29;20541;-86
2021/08/04 05:57:09;;;;;;;5.50;4.70;;;;;;;17.95;65.50;100254.00;4934706;29;20439;-85
2021/08/04 05:59:34;;;;;;;6.22;4.65;;;;;;;18.08;65.18;100256.25;4935003;29;20047;-86
2021/08/04 06:02:00;;;;;;;6.07;4.68;;;;;;;18.09;65.18;100260.56;4933995;29;20048;-86
2021/08/04 06:04:25;;;;;;;6.78;4.82;;;;;;;18.07;64.92;100258.09;4934756;29;20051;-86
2021/08/04 06:06:50;;;;;;;9.25;4.32;;;;;;;18.10;65.02;100247.13;4935113;29;20126;-85
2021/08/04 06:09:16;;;;;;;5.07;4.57;;;;;;;18.12;65.13;100245.16;4935065;29;20031;-87
2021/08/04 06:11:41;;;;;;;4.88;4.22;;;;;;;18.19;65.04;100246.19;4935062;29;20175;-86
2021/08/04 06:14:06;;;;;;;8.95;3.95;;;;;;;18.23;64.59;100249.38;4934910;29;20501;-87
2021/08/04 06:16:32;;;;;;;8.02;5.38;;;;;;;18.33;64.61;100258.06;4935075;29;20035;-86
2021/08/04 06:18:58;;;;;;;5.32;4.70;;;;;;;18.40;64.70;100263.56;4934421;29;20534;-87
2021/08/04 06:21:26;;;;;;;11.00;6.00;;;;;;;18.42;63.89;100261.59;4929932;29;20090;-87
2021/08/04 06:23:52;;;;;;;8.75;5.55;;;;;;;18.47;63.89;100272.59;4915889;29;20486;-87
2021/08/04 06:26:17;;;;;;;7.00;5.72;;;;;;;18.54;63.89;100257.69;4918864;29;20044;-87
2021/08/04 06:28:43;;;;;;;8.80;5.43;;;;;;;18.66;63.62;100262.69;4915187;29;20028;-86
2021/08/04 06:31:09;;;;;;;7.70;5.38;;;;;;;18.78;63.52;100256.09;4915038;29;20028;-86
2021/08/04 06:33:34;;;;;;;7.53;4.63;;;;;;;18.90;62.72;100265.47;4918803;29;20032;-86
2021/08/04 06:36:00;;;;;;;8.80;5.15;;;;;;;19.01;62.66;100262.50;4915048;29;20020;-88
2021/08/04 06:38:25;;;;;;;8.50;5.78;;;;;;;19.58;62.07;100266.25;4916426;29;20047;-87
2021/08/04 06:40:50;;;;;;;6.90;5.55;;;;;;;19.90;60.12;100261.94;4914821;29;20031;-87
2021/08/04 06:43:17;;;;;;;8.18;5.60;;;;;;;19.93;60.01;100270.41;4914848;29;20020;-87
2021/08/04 06:45:43;;;;;;;6.43;4.47;;;;;;;19.87;60.34;100262.28;4915209;29;20028;-87
2021/08/04 06:48:10;;;;;;;10.75;5.07;;;;;;;19.96;59.82;100266.56;4914718;29;20475;-87
2021/08/04 06:50:36;;;;;;;6.07;4.68;;;;;;;20.01;59.68;100273.06;4918997;29;20031;-86
2021/08/04 06:53:01;;;;;;;7.15;4.35;;;;;;;20.04;59.62;100266.56;4914661;29;20391;-86
2021/08/04 06:55:27;;;;;;;9.88;5.05;;;;;;;19.98;59.90;100273.44;4914744;29;20028;-86
2021/08/04 06:57:52;;;;;;;7.78;5.25;;;;;;;19.91;59.80;100263.59;4915409;29;20028;-87
2021/08/04 07:00:17;;;;;;;14.25;4.65;;;;;;;19.94;59.87;100271.25;4915606;29;20036;-87
2021/08/04 07:02:43;;;;;;;6.20;4.93;;;;;;;20.03;59.29;100267.56;4915449;29;20028;-87
2021/08/04 07:05:08;;;;;;;9.20;5.20;;;;;;;20.16;59.65;100273.22;4915477;29;20024;-87
2021/08/04 07:07:34;;;;;;;5.40;4.47;;;;;;;20.76;59.13;100279.88;4915587;29;20116;-87
2021/08/04 07:09:59;;;;;;;6.72;4.95;;;;;;;21.55;56.48;100276.25;4915703;29;20115;-87
2021/08/04 07:12:24;;;;;;;8.85;4.90;;;;;;;22.71;54.21;100280.28;4915588;29;20451;-86
2021/08/04 07:14:51;;;;;;;9.05;4.95;;;;;;;23.20;53.14;100278.81;4915496;29;20094;-86
2021/08/04 07:17:17;;;;;;;6.25;4.85;;;;;;;23.80;51.41;100275.91;4915312;29;20111;-87
2021/08/04 07:19:42;;;;;;;5.72;4.28;;;;;;;24.75;49.12;100279.81;4915360;29;20059;-88
2021/08/04 07:22:08;;;;;;;6.15;4.63;;;;;;;25.57;47.14;100277.13;4916837;29;20024;-88
2021/08/04 07:24:33;;;;;;;6.05;4.18;;;;;;;26.27;44.47;100280.22;4925072;29;20188;-87
2021/08/04 07:26:58;;;;;;;6.65;4.20;;;;;;;27.09;43.22;100277.84;4915288;29;20550;-88
2021/08/04 07:29:24;;;;;;;5.43;3.83;;;;;;;27.60;41.99;100279.59;4930271;29;20032;-88
2021/08/04 07:31:49;;;;;;;6.03;3.80;;;;;;;28.37;40.33;100276.63;4946601;28;20396;-89
2021/08/04 07:34:21;;;;;;;8.60;3.92;;;;;;;28.95;38.72;100278.03;4937363;29;20031;-88
2021/08/04 07:36:47;;;;;;;7.05;4.20;;;;;;;29.30;37.87;100281.94;4934591;29;20475;-89
2021/08/04 07:39:12;;;;;;;6.72;4.20;;;;;;;29.82;37.03;100274.09;4937478;29;20075;-89
2021/08/04 07:41:38;;;;;;;5.97;3.78;;;;;;;30.20;36.98;100280.88;4933664;29;20042;-89
2021/08/04 07:44:03;;;;;;;3.75;3.38;;;;;;;30.75;34.80;100266.88;4933259;29;20113;-89
2021/08/04 07:46:28;;;;;;;6.22;3.55;;;;;;;30.88;34.94;100275.78;4928001;29;20027;-89
2021/08/04 07:48:54;;;;;;;9.20;4.20;;;;;;;31.32;34.40;100265.22;4941303;29;20130;-88
2021/08/04 07:51:19;;;;;;;6.10;3.95;;;;;;;31.47;33.98;100278.28;4937357;29;20036;-89
2021/08/04 07:53:44;;;;;;;6.10;3.53;;;;;;;32.02;33.87;100272.09;4936938;29;20034;-89
2021/08/04 07:56:10;;;;;;;7.13;3.33;;;;;;;32.22;33.60;100268.84;4927130;29;20032;-89
2021/08/04 07:58:35;;;;;;;6.35;3.40;;;;;;;32.58;32.26;100269.31;4936791;29;20070;-89
2021/08/04 08:01:01;;;;;;;7.55;3.67;;;;;;;32.97;31.42;100266.50;4936458;29;20032;-90
2021/08/04 08:03:26;;;;;;;7.25;3.40;;;;;;;33.29;31.07;100271.16;4930480;29;20082;-90
2021/08/04 08:05:51;;;;;;;8.77;3.97;;;;;;;33.57;30.69;100267.31;4935908;29;20106;-89
2021/08/04 08:08:17;;;;;;;4.13;2.42;;;;;;;33.82;29.98;100269.44;4935350;29;20070;-89
2021/08/04 08:10:43;;;;;;;11.18;3.10;;;;;;;33.90;30.07;100268.94;4936994;29;20422;-89
2021/08/04 08:13:09;;;;;;;5.70;3.20;;;;;;;34.30;29.08;100267.56;4918349;29;20122;-89
2021/08/04 08:15:35;;;;;;;4.43;2.65;;;;;;;34.28;28.99;100267.03;4917604;29;20158;-89
2021/08/04 08:18:10;;;;;;;4.10;2.53;;;;;;;34.65;29.88;100267.97;4918010;29;20044;-89
2021/08/04 08:20:38;;;;;;;5.78;3.30;;;;;;;34.83;29.94;100272.13;4931205;29;20387;-89
2021/08/04 08:23:04;;;;;;;6.18;3.00;;;;;;;35.10;30.00;100267.28;4937003;29;20078;-89
2021/08/04 08:25:30;;;;;;;5.63;2.90;;;;;;;35.26;28.49;100265.41;4932047;29;20040;-89
2021/08/04 08:27:56;;;;;;;4.13;2.30;;;;;;;35.65;27.97;100269.50;4918018;29;20032;-89
2021/08/04 08:30:21;;;;;;;4.25;2.35;;;;;;;35.77;26.59;100271.97;4927214;29;20035;-89
2021/08/04 08:32:48;;;;;;;3.25;2.47;;;;;;;35.95;26.56;100274.13;4936679;29;20027;-89
2021/08/04 08:35:15;;;;;;;4.32;3.00;;;;;;;36.13;26.53;100272.72;4936232;29;20203;-89
2021/08/04 08:37:41;;;;;;;4.53;2.50;;;;;;;36.08;26.89;100281.75;4936868;29;20031;-89
2021/08/04 08:40:08;;;;;;;6.75;2.40;;;;;;;36.33;26.20;100278.13;4935071;29;20035;-89
2021/08/04 08:42:34;;;;;;;2.33;1.90;;;;;;;36.72;25.86;100280.16;4929385;29;20414;-88
2021/08/04 08:44:59;;;;;;;4.50;2.45;;;;;;;36.44;26.28;100283.56;4917248;29;20032;-88
2021/08/04 08:47:25;;;;;;;3.22;2.10;;;;;;;36.00;25.56;100276.00;4923215;29;20497;-89
2021/08/04 08:49:51;;;;;;;4.25;2.10;;;;;;;36.65;25.63;100274.22;4929693;29;20454;-88
2021/08/04 08:52:16;;;;;;;5.43;1.98;;;;;;;37.43;24.12;100274.53;4921090;29;20031;-89
2021/08/04 08:54:42;;;;;;;2.78;2.20;;;;;;;37.19;24.63;100274.44;4936419;29;20030;-87
2021/08/04 08:57:07;;;;;;;4.32;2.35;;;;;;;37.67;25.13;100271.88;4934031;29;21654;-89
2021/08/04 08:59:33;;;;;;;3.97;2.33;;;;;;;37.57;23.95;100277.41;4917356;29;20069;-89
2021/08/04 09:01:58;;;;;;;7.70;2.78;;;;;;;36.86;24.51;100276.81;4917441;29;20384;-88
2021/08/04 09:04:24;;;;;;;4.40;2.92;;;;;;;36.43;25.05;100282.72;4936337;29;20079;-88
2021/08/04 09:06:57;;;;;;;3.10;1.90;;;;;;;36.30;24.51;100275.97;4936170;29;20051;-88
2021/08/04 09:09:25;;;;;;;4.53;2.25;;;;;;;36.52;24.20;100281.06;4924958;29;20032;-88
2021/08/04 09:12:09;;;;;;;2.70;1.95;;;;;;;37.07;24.05;100275.59;4917145;29;20443;-88
2021/08/04 09:14:36;;;;;;;2.35;1.63;;;;;;;37.81;23.81;100272.81;4917020;29;20032;-88
2021/08/04 09:17:09;;;;;;;2.13;1.92;;;;;;;37.76;23.29;100280.25;4917100;29;20096;-89
2021/08/04 09:19:38;;;;;;;13.88;2.75;;;;;;;38.04;25.41;100275.88;4935724;29;20043;-89
2021/08/04 09:22:27;;;;;;;4.38;1.95;;;;;;;37.09;24.68;100273.38;4935921;29;20509;-89
2021/08/04 09:25:00;;;;;;;4.97;2.03;;;;;;;37.95;24.82;100272.94;4916937;29;20059;-89
2021/08/04 09:27:41;;;;;;;2.28;1.83;;;;;;;37.97;23.41;100272.66;4917428;29;20032;-89
2021/08/04 09:30:07;;;;;;;3.88;2.50;;;;;;;37.95;24.75;100266.66;4916829;29;20526;-89
2021/08/04 09:32:33;;;;;;;4.95;2.50;;;;;;;37.02;25.14;100264.66;4932530;29;20512;-89
2021/08/04 09:35:11;;;;;;;5.35;2.67;;;;;;;37.34;24.80;100266.09;4935615;29;20115;-89
2021/08/04 09:37:37;;;;;;;4.07;2.67;;;;;;;36.92;24.47;100272.94;4933961;29;20032;-89
2021/08/04 09:40:03;;;;;;;3.00;2.20;;;;;;;37.80;24.88;100262.97;4916631;29;20395;-89
2021/08/04 09:42:46;;;;;;;4.07;2.70;;;;;;;38.72;24.15;100263.00;4916440;29;20036;-89
2021/08/04 09:45:14;;;;;;;3.10;2.17;;;;;;;39.44;23.08;100257.28;4916435;29;20051;-88
2021/08/04 09:48:00;;;;;;;3.15;2.20;;;;;;;39.16;22.41;100270.88;4917756;29;20039;-88
2021/08/04 09:50:26;;;;;;;3.45;2.05;;;;;;;39.26;23.54;100269.88;4935413;29;20390;-90
2021/08/04 09:52:56;;;;;;;3.85;2.60;;;;;;;39.53;22.75;100265.63;4932044;29;20032;-88
2021/08/04 09:55:23;;;;;;;3.78;2.35;;;;;;;39.69;22.37;100264.22;4915695;29;20495;-89
2021/08/04 09:57:51;;;;;;;6.22;2.88;;;;;;;38.05;22.85;100266.53;4917007;29;20106;-88
2021/08/04 10:00:18;;;;;;;3.50;2.30;;;;;;;36.91;24.58;100265.84;4935475;29;20032;-89
2021/08/04 10:02:44;;;;;;;3.10;2.20;;;;;;;36.28;24.60;100263.69;4931323;29;20023;-88
2021/08/04 10:05:24;;;;;;;2.92;2.10;;;;;;;37.00;24.07;100255.91;4934786;29;20036;-88
2021/08/04 10:08:05;;;;;;;5.18;2.67;;;;;;;37.97;23.77;100264.44;4931736;29;20016;-88
2021/08/04 10:10:55;;;;;;;2.55;1.80;;;;;;;37.96;21.47;100268.28;4916054;29;20032;-88
2021/08/04 10:13:24;;;;;;;2.97;1.52;;;;;;;36.93;22.74;100252.69;4923432;29;20114;-88
2021/08/04 10:15:52;;;;;;;3.30;1.15;;;;;;;37.75;22.38;100257.53;4935098;29;20115;-88
2021/08/04 10:18:23;;;;;;;2.90;1.13;;;;;;;36.95;22.37;100253.25;4928094;29;20111;-87
2021/08/04 10:20:56;;;;;;;3.83;1.45;;;;;;;35.62;23.76;100253.66;4916346;29;20044;-88
2021/08/04 10:23:26;;;;;;;2.42;1.52;;;;;;;35.24;24.42;100247.69;4918035;29;20372;-88
2021/08/04 10:25:55;;;;;;;3.28;1.77;;;;;;;34.64;26.22;100253.53;4915945;29;20075;-87
2021/08/04 10:28:21;;;;;;;2.40;1.85;;;;;;;33.61;27.89;100257.53;4925921;29;20098;-88
2021/08/04 10:30:47;;;;;;;2.97;1.70;;;;;;;33.23;29.43;100250.44;4933540;29;20032;-88
2021/08/04 10:33:13;;;;;;;2.88;1.80;;;;;;;32.93;29.46;100251.75;4925836;29;20050;-87
2021/08/04 10:35:43;;;;;;;3.17;2.10;;;;;;;33.94;27.26;100247.44;4915845;29;20028;-87
2021/08/04 10:38:13;;;;;;;2.45;1.50;;;;;;;34.87;27.20;100249.50;4916680;29;20372;-87
2021/08/04 10:40:39;;;;;;;8.10;2.08;;;;;;;35.91;24.99;100243.81;4915779;29;20028;-87
2021/08/04 10:43:04;;;;;;;2.80;1.77;;;;;;;36.47;23.68;100241.97;4924935;29;20039;-88
2021/08/04 10:45:32;;;;;;;2.60;2.00;;;;;;;36.59;23.86;100234.25;4919460;29;20506;-88
2021/08/04 10:48:23;;;;;;;3.33;1.80;;;;;;;37.22;23.59;100235.53;4924526;29;20031;-88
2021/08/04 10:51:15;;;;;;;3.28;1.80;;;;;;;36.28;23.77;100236.34;4934904;29;20020;-88
2021/08/04 10:54:03;;;;;;;3.05;1.88;;;;;;;37.14;24.17;100238.88;4920098;29;20038;-88
2021/08/04 10:56:32;;;;;;;2.03;1.80;;;;;;;36.30;24.55;100234.16;4915634;29;20028;-89
2021/08/04 10:59:09;;;;;;;8.07;2.10;;;;;;;35.68;25.87;100233.47;4931620;29;20036;-87
2021/08/04 11:01:35;;;;;;;4.28;2.20;;;;;;;34.67;27.48;100233.91;4934541;29;20091;-87
2021/08/04 11:04:02;;;;;;;5.20;1.90;;;;;;;34.43;27.52;100235.47;4918445;29;20124;-88
2021/08/04 11:06:28;;;;;;;4.20;2.20;;;;;;;33.66;28.39;100230.41;4916402;29;20064;-88
2021/08/04 11:09:22;;;;;;;5.47;2.20;;;;;;;33.73;28.65;100238.31;4933885;29;20082;-88
2021/08/04 11:11:57;;;;;;;3.25;2.08;;;;;;;33.21;29.21;100236.28;4941434;29;20047;-88
2021/08/04 11:14:38;;;;;;;3.42;2.38;;;;;;;33.58;28.52;100234.41;4938082;29;20043;-88
2021/08/04 11:17:06;;;;;;;5.45;2.47;;;;;;;34.37;28.14;100229.97;4936681;29;20028;-88
2021/08/04 11:19:34;;;;;;;4.97;2.10;;;;;;;35.18;27.91;100229.66;4919074;29;20113;-88
2021/08/04 11:22:22;;;;;;;2.45;1.83;;;;;;;35.83;25.60;100227.97;4919383;29;20110;-88
2021/08/04 11:24:54;;;;;;;2.50;1.90;;;;;;;36.23;25.35;100223.50;4938002;29;20471;-88
2021/08/04 11:27:22;;;;;;;3.55;1.50;;;;;;;36.97;24.87;100220.94;4935571;29;20032;-88